sensor_id;sensor_type;location;lat;lon;timestamp;P1;durP1;ratioP1;P2;durP2;ratioP2
76727;SDS011;65652;53.132;18.026;2023-05-28T00:01:19;9.90;;;3.50;;
76727;SDS011;65652;53.132;18.026;2023-05-28T00:03:50;9.10;;;3.10;;
76727;SDS011;65652;53.132;18.026;2023-05-28T00:06:17;9.00;;;3.10;;
76727;SDS011;65652;53.132;18.026;2023-05-28T00:08:44;9.70;;;3.20;;
76727;SDS011;65652;53.132;18.026;2023-05-28T00:11:12;7.30;;;2.90;;
76727;SDS011;65652;53.132;18.026;2023-05-28T00:13:39;6.40;;;2.60;;
76727;SDS011;65652;53.132;18.026;2023-05-28T00:16:05;8.60;;;2.60;;
76727;SDS011;65652;53.132;18.026;2023-05-28T00:18:33;7.10;;;2.60;;
76727;SDS011;65652;53.132;18.026;2023-05-28T00:20:59;6.30;;;2.50;;
76727;SDS011;65652;53.132;18.026;2023-05-28T00:23:27;6.90;;;2.80;;
76727;SDS011;65652;53.132;18.026;2023-05-28T00:25:54;6.80;;;2.80;;
76727;SDS011;65652;53.132;18.026;2023-05-28T00:28:21;7.20;;;2.70;;
76727;SDS011;65652;53.132;18.026;2023-05-28T00:30:48;6.50;;;2.60;;
76727;SDS011;65652;53.132;18.026;2023-05-28T00:33:15;6.00;;;2.40;;
76727;SDS011;65652;53.132;18.026;2023-05-28T00:35:42;7.90;;;2.50;;
76727;SDS011;65652;53.132;18.026;2023-05-28T00:38:10;8.70;;;2.80;;
76727;SDS011;65652;53.132;18.026;2023-05-28T00:40:37;6.70;;;2.90;;
76727;SDS011;65652;53.132;18.026;2023-05-28T00:43:09;9.70;;;3.00;;
76727;SDS011;65652;53.132;18.026;2023-05-28T00:45:36;6.90;;;2.80;;
76727;SDS011;65652;53.132;18.026;2023-05-28T00:48:03;7.20;;;2.60;;
76727;SDS011;65652;53.132;18.026;2023-05-28T00:50:30;8.60;;;3.00;;
76727;SDS011;65652;53.132;18.026;2023-05-28T00:52:57;5.70;;;2.40;;
76727;SDS011;65652;53.132;18.026;2023-05-28T00:55:25;6.70;;;2.70;;
76727;SDS011;65652;53.132;18.026;2023-05-28T00:57:52;9.10;;;2.70;;
76727;SDS011;65652;53.132;18.026;2023-05-28T01:00:20;10.80;;;2.90;;
76727;SDS011;65652;53.132;18.026;2023-05-28T01:02:48;6.40;;;2.40;;
76727;SDS011;65652;53.132;18.026;2023-05-28T01:05:15;7.70;;;2.80;;
76727;SDS011;65652;53.132;18.026;2023-05-28T01:07:43;7.20;;;2.90;;
76727;SDS011;65652;53.132;18.026;2023-05-28T01:10:10;7.50;;;3.10;;
76727;SDS011;65652;53.132;18.026;2023-05-28T01:12:38;7.40;;;2.70;;
76727;SDS011;65652;53.132;18.026;2023-05-28T01:15:05;7.80;;;3.00;;
76727;SDS011;65652;53.132;18.026;2023-05-28T01:17:33;7.20;;;2.90;;
76727;SDS011;65652;53.132;18.026;2023-05-28T01:20:00;7.60;;;2.90;;
76727;SDS011;65652;53.132;18.026;2023-05-28T01:22:37;7.90;;;2.90;;
76727;SDS011;65652;53.132;18.026;2023-05-28T01:25:06;9.50;;;3.60;;
76727;SDS011;65652;53.132;18.026;2023-05-28T01:27:39;10.60;;;3.20;;
76727;SDS011;65652;53.132;18.026;2023-05-28T01:30:07;9.20;;;3.40;;
76727;SDS011;65652;53.132;18.026;2023-05-28T01:32:39;9.10;;;3.20;;
76727;SDS011;65652;53.132;18.026;2023-05-28T01:35:06;6.90;;;3.20;;
76727;SDS011;65652;53.132;18.026;2023-05-28T01:37:43;7.60;;;2.80;;
76727;SDS011;65652;53.132;18.026;2023-05-28T01:40:13;10.30;;;2.80;;
76727;SDS011;65652;53.132;18.026;2023-05-28T01:42:44;7.10;;;3.00;;
76727;SDS011;65652;53.132;18.026;2023-05-28T01:45:15;7.20;;;3.00;;
76727;SDS011;65652;53.132;18.026;2023-05-28T01:47:43;7.40;;;3.00;;
76727;SDS011;65652;53.132;18.026;2023-05-28T01:50:12;8.50;;;3.20;;
76727;SDS011;65652;53.132;18.026;2023-05-28T01:52:40;7.80;;;3.00;;
76727;SDS011;65652;53.132;18.026;2023-05-28T01:55:07;9.20;;;3.00;;
76727;SDS011;65652;53.132;18.026;2023-05-28T01:57:42;8.70;;;3.20;;
76727;SDS011;65652;53.132;18.026;2023-05-28T02:00:10;8.20;;;3.20;;
76727;SDS011;65652;53.132;18.026;2023-05-28T02:02:44;7.00;;;3.20;;
76727;SDS011;65652;53.132;18.026;2023-05-28T02:05:14;7.50;;;3.00;;
76727;SDS011;65652;53.132;18.026;2023-05-28T02:07:41;8.20;;;3.60;;
76727;SDS011;65652;53.132;18.026;2023-05-28T02:10:08;7.50;;;3.90;;
76727;SDS011;65652;53.132;18.026;2023-05-28T02:12:36;7.80;;;3.40;;
76727;SDS011;65652;53.132;18.026;2023-05-28T02:15:04;9.50;;;3.20;;
76727;SDS011;65652;53.132;18.026;2023-05-28T02:19:58;9.90;;;3.90;;
76727;SDS011;65652;53.132;18.026;2023-05-28T02:22:27;7.80;;;3.70;;
76727;SDS011;65652;53.132;18.026;2023-05-28T02:24:55;7.90;;;3.90;;
76727;SDS011;65652;53.132;18.026;2023-05-28T02:27:21;8.40;;;3.70;;
76727;SDS011;65652;53.132;18.026;2023-05-28T02:29:51;9.50;;;3.80;;
76727;SDS011;65652;53.132;18.026;2023-05-28T02:32:18;8.20;;;3.80;;
76727;SDS011;65652;53.132;18.026;2023-05-28T02:34:45;8.00;;;3.80;;
76727;SDS011;65652;53.132;18.026;2023-05-28T02:37:12;10.00;;;3.60;;
76727;SDS011;65652;53.132;18.026;2023-05-28T02:39:38;9.40;;;3.40;;
76727;SDS011;65652;53.132;18.026;2023-05-28T02:42:05;9.50;;;3.80;;
76727;SDS011;65652;53.132;18.026;2023-05-28T02:44:32;7.90;;;3.20;;
76727;SDS011;65652;53.132;18.026;2023-05-28T02:46:59;7.40;;;3.40;;
76727;SDS011;65652;53.132;18.026;2023-05-28T02:49:26;9.10;;;4.10;;
76727;SDS011;65652;53.132;18.026;2023-05-28T02:51:53;10.50;;;3.50;;
76727;SDS011;65652;53.132;18.026;2023-05-28T02:54:30;9.70;;;3.50;;
76727;SDS011;65652;53.132;18.026;2023-05-28T02:56:57;9.10;;;3.70;;
76727;SDS011;65652;53.132;18.026;2023-05-28T02:59:24;9.30;;;4.00;;
76727;SDS011;65652;53.132;18.026;2023-05-28T03:01:51;9.00;;;3.70;;
76727;SDS011;65652;53.132;18.026;2023-05-28T03:04:18;8.00;;;3.50;;
76727;SDS011;65652;53.132;18.026;2023-05-28T03:06:45;10.50;;;4.30;;
76727;SDS011;65652;53.132;18.026;2023-05-28T03:09:13;11.20;;;4.20;;
76727;SDS011;65652;53.132;18.026;2023-05-28T03:11:42;8.80;;;3.70;;
76727;SDS011;65652;53.132;18.026;2023-05-28T03:14:09;9.70;;;4.30;;
76727;SDS011;65652;53.132;18.026;2023-05-28T03:16:36;11.70;;;4.40;;
76727;SDS011;65652;53.132;18.026;2023-05-28T03:19:04;9.00;;;4.70;;
76727;SDS011;65652;53.132;18.026;2023-05-28T03:21:32;9.80;;;3.80;;
76727;SDS011;65652;53.132;18.026;2023-05-28T03:23:59;9.70;;;4.40;;
76727;SDS011;65652;53.132;18.026;2023-05-28T03:26:37;9.70;;;4.20;;
76727;SDS011;65652;53.132;18.026;2023-05-28T03:29:04;10.70;;;4.40;;
76727;SDS011;65652;53.132;18.026;2023-05-28T03:31:49;8.50;;;4.00;;
76727;SDS011;65652;53.132;18.026;2023-05-28T03:34:20;11.50;;;3.90;;
76727;SDS011;65652;53.132;18.026;2023-05-28T03:36:47;7.80;;;4.00;;
76727;SDS011;65652;53.132;18.026;2023-05-28T03:39:14;7.30;;;3.70;;
76727;SDS011;65652;53.132;18.026;2023-05-28T03:41:41;10.20;;;4.30;;
76727;SDS011;65652;53.132;18.026;2023-05-28T03:44:11;10.20;;;4.10;;
76727;SDS011;65652;53.132;18.026;2023-05-28T03:46:38;8.80;;;3.90;;
76727;SDS011;65652;53.132;18.026;2023-05-28T03:49:07;9.50;;;4.10;;
76727;SDS011;65652;53.132;18.026;2023-05-28T03:51:35;10.10;;;4.50;;
76727;SDS011;65652;53.132;18.026;2023-05-28T03:54:03;9.20;;;3.80;;
76727;SDS011;65652;53.132;18.026;2023-05-28T03:56:30;11.40;;;3.90;;
76727;SDS011;65652;53.132;18.026;2023-05-28T03:59:00;11.00;;;4.10;;
76727;SDS011;65652;53.132;18.026;2023-05-28T04:01:27;8.10;;;3.90;;
76727;SDS011;65652;53.132;18.026;2023-05-28T04:03:54;9.10;;;3.80;;
76727;SDS011;65652;53.132;18.026;2023-05-28T04:08:51;11.90;;;3.70;;
76727;SDS011;65652;53.132;18.026;2023-05-28T04:11:19;11.40;;;3.80;;
76727;SDS011;65652;53.132;18.026;2023-05-28T04:13:48;9.70;;;4.20;;
76727;SDS011;65652;53.132;18.026;2023-05-28T04:16:15;11.00;;;3.90;;
76727;SDS011;65652;53.132;18.026;2023-05-28T04:18:42;9.00;;;4.80;;
76727;SDS011;65652;53.132;18.026;2023-05-28T04:21:09;8.20;;;3.80;;
76727;SDS011;65652;53.132;18.026;2023-05-28T04:23:38;8.20;;;4.00;;
76727;SDS011;65652;53.132;18.026;2023-05-28T04:26:05;7.90;;;3.70;;
76727;SDS011;65652;53.132;18.026;2023-05-28T04:28:33;9.60;;;4.20;;
76727;SDS011;65652;53.132;18.026;2023-05-28T04:31:00;9.30;;;4.30;;
76727;SDS011;65652;53.132;18.026;2023-05-28T04:33:27;10.40;;;4.20;;
76727;SDS011;65652;53.132;18.026;2023-05-28T04:35:57;8.60;;;4.50;;
76727;SDS011;65652;53.132;18.026;2023-05-28T04:38:26;9.70;;;4.30;;
76727;SDS011;65652;53.132;18.026;2023-05-28T04:40:58;9.30;;;3.90;;
76727;SDS011;65652;53.132;18.026;2023-05-28T04:43:26;9.50;;;3.90;;
76727;SDS011;65652;53.132;18.026;2023-05-28T04:45:59;11.50;;;4.10;;
76727;SDS011;65652;53.132;18.026;2023-05-28T04:48:28;9.20;;;4.80;;
76727;SDS011;65652;53.132;18.026;2023-05-28T04:50:54;10.10;;;4.40;;
76727;SDS011;65652;53.132;18.026;2023-05-28T04:53:21;10.20;;;4.50;;
76727;SDS011;65652;53.132;18.026;2023-05-28T04:55:48;10.50;;;4.40;;
76727;SDS011;65652;53.132;18.026;2023-05-28T04:58:16;9.70;;;4.60;;
76727;SDS011;65652;53.132;18.026;2023-05-28T05:00:43;11.90;;;4.60;;
76727;SDS011;65652;53.132;18.026;2023-05-28T05:03:09;11.30;;;4.60;;
76727;SDS011;65652;53.132;18.026;2023-05-28T05:05:38;13.20;;;5.50;;
76727;SDS011;65652;53.132;18.026;2023-05-28T05:08:08;11.50;;;4.30;;
76727;SDS011;65652;53.132;18.026;2023-05-28T05:10:40;10.90;;;4.40;;
76727;SDS011;65652;53.132;18.026;2023-05-28T05:13:07;9.80;;;5.20;;
76727;SDS011;65652;53.132;18.026;2023-05-28T05:15:34;11.10;;;4.50;;
76727;SDS011;65652;53.132;18.026;2023-05-28T05:18:01;9.00;;;4.20;;
76727;SDS011;65652;53.132;18.026;2023-05-28T05:20:28;11.30;;;4.80;;
76727;SDS011;65652;53.132;18.026;2023-05-28T05:25:23;10.00;;;4.80;;
76727;SDS011;65652;53.132;18.026;2023-05-28T05:27:53;9.70;;;4.10;;
76727;SDS011;65652;53.132;18.026;2023-05-28T05:30:19;9.90;;;4.00;;
76727;SDS011;65652;53.132;18.026;2023-05-28T05:32:47;8.50;;;3.80;;
76727;SDS011;65652;53.132;18.026;2023-05-28T05:35:14;9.70;;;4.10;;
76727;SDS011;65652;53.132;18.026;2023-05-28T05:38:14;11.40;;;4.40;;
76727;SDS011;65652;53.132;18.026;2023-05-28T05:41:04;9.80;;;4.20;;
76727;SDS011;65652;53.132;18.026;2023-05-28T05:43:49;11.00;;;4.20;;
76727;SDS011;65652;53.132;18.026;2023-05-28T05:46:16;10.30;;;4.50;;
76727;SDS011;65652;53.132;18.026;2023-05-28T05:48:43;8.80;;;3.90;;
76727;SDS011;65652;53.132;18.026;2023-05-28T05:51:10;12.50;;;4.50;;
76727;SDS011;65652;53.132;18.026;2023-05-28T05:53:44;10.50;;;3.90;;
76727;SDS011;65652;53.132;18.026;2023-05-28T05:56:11;12.20;;;4.60;;
76727;SDS011;65652;53.132;18.026;2023-05-28T05:58:38;11.30;;;4.30;;
76727;SDS011;65652;53.132;18.026;2023-05-28T06:01:08;8.70;;;4.10;;
76727;SDS011;65652;53.132;18.026;2023-05-28T06:03:36;7.30;;;3.70;;
76727;SDS011;65652;53.132;18.026;2023-05-28T06:06:06;10.80;;;4.00;;
76727;SDS011;65652;53.132;18.026;2023-05-28T06:08:52;10.50;;;4.10;;
76727;SDS011;65652;53.132;18.026;2023-05-28T06:11:45;9.30;;;3.80;;
76727;SDS011;65652;53.132;18.026;2023-05-28T06:14:12;9.60;;;4.10;;
76727;SDS011;65652;53.132;18.026;2023-05-28T06:16:39;9.30;;;4.10;;
76727;SDS011;65652;53.132;18.026;2023-05-28T06:21:35;8.00;;;3.40;;
76727;SDS011;65652;53.132;18.026;2023-05-28T06:24:04;7.20;;;3.40;;
76727;SDS011;65652;53.132;18.026;2023-05-28T06:26:32;9.00;;;3.90;;
76727;SDS011;65652;53.132;18.026;2023-05-28T06:28:59;10.00;;;3.60;;
76727;SDS011;65652;53.132;18.026;2023-05-28T06:31:28;11.80;;;4.00;;
76727;SDS011;65652;53.132;18.026;2023-05-28T06:33:55;8.90;;;3.10;;
76727;SDS011;65652;53.132;18.026;2023-05-28T06:36:22;9.40;;;3.70;;
76727;SDS011;65652;53.132;18.026;2023-05-28T06:38:50;8.80;;;2.50;;
76727;SDS011;65652;53.132;18.026;2023-05-28T06:41:17;7.60;;;2.30;;
76727;SDS011;65652;53.132;18.026;2023-05-28T06:43:48;5.80;;;2.00;;
76727;SDS011;65652;53.132;18.026;2023-05-28T06:46:23;7.90;;;1.90;;
76727;SDS011;65652;53.132;18.026;2023-05-28T06:48:50;6.30;;;2.80;;
76727;SDS011;65652;53.132;18.026;2023-05-28T06:51:19;8.80;;;2.50;;
76727;SDS011;65652;53.132;18.026;2023-05-28T06:53:46;5.10;;;1.40;;
76727;SDS011;65652;53.132;18.026;2023-05-28T06:56:15;4.30;;;1.40;;
76727;SDS011;65652;53.132;18.026;2023-05-28T06:58:45;4.00;;;1.40;;
76727;SDS011;65652;53.132;18.026;2023-05-28T07:01:32;5.70;;;1.50;;
76727;SDS011;65652;53.132;18.026;2023-05-28T07:04:19;4.70;;;1.10;;
76727;SDS011;65652;53.132;18.026;2023-05-28T07:06:48;6.50;;;1.30;;
76727;SDS011;65652;53.132;18.026;2023-05-28T07:09:28;5.30;;;1.50;;
76727;SDS011;65652;53.132;18.026;2023-05-28T07:11:56;4.10;;;1.20;;
76727;SDS011;65652;53.132;18.026;2023-05-28T07:14:23;4.10;;;1.20;;
76727;SDS011;65652;53.132;18.026;2023-05-28T07:16:51;4.60;;;1.20;;
76727;SDS011;65652;53.132;18.026;2023-05-28T07:19:18;5.50;;;1.40;;
76727;SDS011;65652;53.132;18.026;2023-05-28T07:24:13;4.40;;;1.10;;
76727;SDS011;65652;53.132;18.026;2023-05-28T07:26:40;3.80;;;1.20;;
76727;SDS011;65652;53.132;18.026;2023-05-28T07:29:07;5.40;;;1.40;;
76727;SDS011;65652;53.132;18.026;2023-05-28T07:31:34;4.60;;;0.90;;
76727;SDS011;65652;53.132;18.026;2023-05-28T07:34:05;4.50;;;1.20;;
76727;SDS011;65652;53.132;18.026;2023-05-28T07:36:33;4.10;;;1.20;;
76727;SDS011;65652;53.132;18.026;2023-05-28T07:39:01;5.00;;;1.30;;
76727;SDS011;65652;53.132;18.026;2023-05-28T07:41:28;5.40;;;1.20;;
76727;SDS011;65652;53.132;18.026;2023-05-28T07:44:00;4.00;;;1.20;;
76727;SDS011;65652;53.132;18.026;2023-05-28T07:46:28;4.20;;;1.20;;
76727;SDS011;65652;53.132;18.026;2023-05-28T07:49:04;4.90;;;1.50;;
76727;SDS011;65652;53.132;18.026;2023-05-28T07:51:50;4.90;;;1.30;;
76727;SDS011;65652;53.132;18.026;2023-05-28T07:54:20;5.30;;;1.10;;
76727;SDS011;65652;53.132;18.026;2023-05-28T07:56:48;5.00;;;1.30;;
76727;SDS011;65652;53.132;18.026;2023-05-28T07:59:25;6.10;;;1.20;;
76727;SDS011;65652;53.132;18.026;2023-05-28T08:01:55;4.50;;;0.90;;
76727;SDS011;65652;53.132;18.026;2023-05-28T08:04:22;5.10;;;1.20;;
76727;SDS011;65652;53.132;18.026;2023-05-28T08:06:49;4.30;;;1.10;;
76727;SDS011;65652;53.132;18.026;2023-05-28T08:09:18;3.30;;;0.90;;
76727;SDS011;65652;53.132;18.026;2023-05-28T08:11:47;3.70;;;1.20;;
76727;SDS011;65652;53.132;18.026;2023-05-28T08:14:14;3.80;;;1.10;;
76727;SDS011;65652;53.132;18.026;2023-05-28T08:16:42;4.80;;;1.10;;
76727;SDS011;65652;53.132;18.026;2023-05-28T08:19:13;4.50;;;1.20;;
76727;SDS011;65652;53.132;18.026;2023-05-28T08:21:40;3.90;;;1.30;;
76727;SDS011;65652;53.132;18.026;2023-05-28T08:24:07;4.50;;;1.00;;
76727;SDS011;65652;53.132;18.026;2023-05-28T08:26:37;4.80;;;1.10;;
76727;SDS011;65652;53.132;18.026;2023-05-28T08:29:04;5.30;;;1.30;;
76727;SDS011;65652;53.132;18.026;2023-05-28T08:31:33;4.50;;;1.30;;
76727;SDS011;65652;53.132;18.026;2023-05-28T08:34:14;3.70;;;1.00;;
76727;SDS011;65652;53.132;18.026;2023-05-28T08:36:43;4.30;;;1.00;;
76727;SDS011;65652;53.132;18.026;2023-05-28T08:39:13;4.00;;;1.20;;
76727;SDS011;65652;53.132;18.026;2023-05-28T08:41:41;5.90;;;1.40;;
76727;SDS011;65652;53.132;18.026;2023-05-28T08:44:10;4.60;;;1.20;;
76727;SDS011;65652;53.132;18.026;2023-05-28T08:46:39;5.30;;;1.40;;
76727;SDS011;65652;53.132;18.026;2023-05-28T08:49:19;4.80;;;0.90;;
76727;SDS011;65652;53.132;18.026;2023-05-28T08:51:48;4.90;;;1.10;;
76727;SDS011;65652;53.132;18.026;2023-05-28T08:54:23;5.40;;;1.10;;
76727;SDS011;65652;53.132;18.026;2023-05-28T08:56:52;4.00;;;1.00;;
76727;SDS011;65652;53.132;18.026;2023-05-28T08:59:20;4.90;;;1.30;;
76727;SDS011;65652;53.132;18.026;2023-05-28T09:01:49;3.70;;;1.00;;
76727;SDS011;65652;53.132;18.026;2023-05-28T09:04:20;6.50;;;1.40;;
76727;SDS011;65652;53.132;18.026;2023-05-28T09:06:48;4.10;;;1.00;;
76727;SDS011;65652;53.132;18.026;2023-05-28T09:09:29;7.10;;;1.50;;
76727;SDS011;65652;53.132;18.026;2023-05-28T09:11:57;4.90;;;1.10;;
76727;SDS011;65652;53.132;18.026;2023-05-28T09:14:30;5.40;;;1.40;;
76727;SDS011;65652;53.132;18.026;2023-05-28T09:17:03;4.20;;;1.20;;
76727;SDS011;65652;53.132;18.026;2023-05-28T09:19:30;6.80;;;1.20;;
76727;SDS011;65652;53.132;18.026;2023-05-28T09:21:58;4.60;;;1.10;;
76727;SDS011;65652;53.132;18.026;2023-05-28T09:24:32;4.30;;;1.20;;
76727;SDS011;65652;53.132;18.026;2023-05-28T09:27:23;5.60;;;1.40;;
76727;SDS011;65652;53.132;18.026;2023-05-28T09:32:18;3.90;;;1.10;;
76727;SDS011;65652;53.132;18.026;2023-05-28T09:34:50;5.50;;;1.90;;
76727;SDS011;65652;53.132;18.026;2023-05-28T09:37:17;6.20;;;2.00;;
76727;SDS011;65652;53.132;18.026;2023-05-28T09:39:44;4.90;;;1.80;;
76727;SDS011;65652;53.132;18.026;2023-05-28T09:42:11;7.50;;;3.10;;
76727;SDS011;65652;53.132;18.026;2023-05-28T09:44:40;6.40;;;2.10;;
76727;SDS011;65652;53.132;18.026;2023-05-28T09:47:17;7.00;;;2.50;;
76727;SDS011;65652;53.132;18.026;2023-05-28T09:49:46;4.10;;;1.60;;
76727;SDS011;65652;53.132;18.026;2023-05-28T09:52:16;7.20;;;3.70;;
76727;SDS011;65652;53.132;18.026;2023-05-28T09:54:50;13.80;;;7.90;;
76727;SDS011;65652;53.132;18.026;2023-05-28T09:57:22;5.70;;;2.20;;
76727;SDS011;65652;53.132;18.026;2023-05-28T09:59:54;4.20;;;1.20;;
76727;SDS011;65652;53.132;18.026;2023-05-28T10:02:27;5.20;;;1.40;;
76727;SDS011;65652;53.132;18.026;2023-05-28T10:04:56;4.30;;;1.30;;
76727;SDS011;65652;53.132;18.026;2023-05-28T10:07:28;4.80;;;1.30;;
76727;SDS011;65652;53.132;18.026;2023-05-28T10:09:56;5.50;;;2.20;;
76727;SDS011;65652;53.132;18.026;2023-05-28T10:12:27;6.40;;;2.20;;
76727;SDS011;65652;53.132;18.026;2023-05-28T10:14:56;7.10;;;2.00;;
76727;SDS011;65652;53.132;18.026;2023-05-28T10:17:24;5.90;;;1.60;;
76727;SDS011;65652;53.132;18.026;2023-05-28T10:19:51;6.00;;;1.90;;
76727;SDS011;65652;53.132;18.026;2023-05-28T10:22:18;5.50;;;1.50;;
76727;SDS011;65652;53.132;18.026;2023-05-28T10:24:46;3.50;;;1.10;;
76727;SDS011;65652;53.132;18.026;2023-05-28T10:27:14;5.00;;;1.60;;
76727;SDS011;65652;53.132;18.026;2023-05-28T10:29:42;6.70;;;1.70;;
76727;SDS011;65652;53.132;18.026;2023-05-28T10:32:15;3.40;;;1.10;;
76727;SDS011;65652;53.132;18.026;2023-05-28T10:34:43;5.70;;;1.20;;
76727;SDS011;65652;53.132;18.026;2023-05-28T10:37:11;5.40;;;1.60;;
76727;SDS011;65652;53.132;18.026;2023-05-28T10:39:40;5.30;;;1.20;;
76727;SDS011;65652;53.132;18.026;2023-05-28T10:42:08;5.50;;;1.40;;
76727;SDS011;65652;53.132;18.026;2023-05-28T10:50:13;4.90;;;1.20;;
76727;SDS011;65652;53.132;18.026;2023-05-28T10:52:41;4.40;;;1.30;;
76727;SDS011;65652;53.132;18.026;2023-05-28T10:55:10;5.60;;;1.40;;
76727;SDS011;65652;53.132;18.026;2023-05-28T11:00:23;5.20;;;1.30;;
76727;SDS011;65652;53.132;18.026;2023-05-28T11:02:52;4.70;;;1.40;;
76727;SDS011;65652;53.132;18.026;2023-05-28T11:05:24;4.70;;;1.20;;
76727;SDS011;65652;53.132;18.026;2023-05-28T11:07:52;5.00;;;1.40;;
76727;SDS011;65652;53.132;18.026;2023-05-28T11:10:21;3.80;;;1.50;;
76727;SDS011;65652;53.132;18.026;2023-05-28T11:12:48;4.00;;;1.20;;
76727;SDS011;65652;53.132;18.026;2023-05-28T11:15:16;4.40;;;1.30;;
76727;SDS011;65652;53.132;18.026;2023-05-28T11:17:44;4.90;;;1.30;;
76727;SDS011;65652;53.132;18.026;2023-05-28T11:20:22;3.50;;;1.10;;
76727;SDS011;65652;53.132;18.026;2023-05-28T11:22:54;5.20;;;1.20;;
76727;SDS011;65652;53.132;18.026;2023-05-28T11:25:22;4.80;;;1.50;;
76727;SDS011;65652;53.132;18.026;2023-05-28T11:27:52;7.60;;;1.90;;
76727;SDS011;65652;53.132;18.026;2023-05-28T11:30:20;4.70;;;1.20;;
76727;SDS011;65652;53.132;18.026;2023-05-28T11:32:48;5.20;;;1.50;;
76727;SDS011;65652;53.132;18.026;2023-05-28T11:35:15;3.90;;;1.10;;
76727;SDS011;65652;53.132;18.026;2023-05-28T11:37:44;4.60;;;1.10;;
76727;SDS011;65652;53.132;18.026;2023-05-28T11:40:12;4.40;;;1.30;;
76727;SDS011;65652;53.132;18.026;2023-05-28T11:42:41;5.70;;;1.30;;
76727;SDS011;65652;53.132;18.026;2023-05-28T11:45:09;7.00;;;1.40;;
76727;SDS011;65652;53.132;18.026;2023-05-28T11:47:38;6.90;;;1.80;;
76727;SDS011;65652;53.132;18.026;2023-05-28T11:50:09;4.80;;;1.30;;
76727;SDS011;65652;53.132;18.026;2023-05-28T11:52:41;5.30;;;1.20;;
76727;SDS011;65652;53.132;18.026;2023-05-28T11:55:09;4.40;;;1.10;;
76727;SDS011;65652;53.132;18.026;2023-05-28T11:57:37;5.00;;;1.60;;
76727;SDS011;65652;53.132;18.026;2023-05-28T12:00:06;5.10;;;1.20;;
76727;SDS011;65652;53.132;18.026;2023-05-28T12:03:02;5.00;;;1.40;;
76727;SDS011;65652;53.132;18.026;2023-05-28T12:05:35;3.20;;;1.00;;
76727;SDS011;65652;53.132;18.026;2023-05-28T12:08:04;3.00;;;0.90;;
76727;SDS011;65652;53.132;18.026;2023-05-28T12:10:32;4.40;;;1.10;;
76727;SDS011;65652;53.132;18.026;2023-05-28T12:12:59;5.10;;;1.40;;
76727;SDS011;65652;53.132;18.026;2023-05-28T12:15:27;6.20;;;1.70;;
76727;SDS011;65652;53.132;18.026;2023-05-28T12:17:56;5.00;;;1.40;;
76727;SDS011;65652;53.132;18.026;2023-05-28T12:20:28;5.20;;;1.30;;
76727;SDS011;65652;53.132;18.026;2023-05-28T12:23:09;4.30;;;1.60;;
76727;SDS011;65652;53.132;18.026;2023-05-28T12:25:44;3.90;;;1.10;;
76727;SDS011;65652;53.132;18.026;2023-05-28T12:28:16;5.60;;;1.30;;
76727;SDS011;65652;53.132;18.026;2023-05-28T12:30:45;5.00;;;1.60;;
76727;SDS011;65652;53.132;18.026;2023-05-28T12:33:16;4.00;;;1.20;;
76727;SDS011;65652;53.132;18.026;2023-05-28T12:38:11;4.10;;;1.20;;
76727;SDS011;65652;53.132;18.026;2023-05-28T12:40:40;4.20;;;1.00;;
76727;SDS011;65652;53.132;18.026;2023-05-28T12:43:07;3.80;;;1.20;;
76727;SDS011;65652;53.132;18.026;2023-05-28T12:45:34;5.20;;;1.30;;
76727;SDS011;65652;53.132;18.026;2023-05-28T12:48:01;3.70;;;1.10;;
76727;SDS011;65652;53.132;18.026;2023-05-28T12:50:28;4.90;;;1.60;;
76727;SDS011;65652;53.132;18.026;2023-05-28T12:52:55;4.50;;;1.10;;
76727;SDS011;65652;53.132;18.026;2023-05-28T12:55:21;5.30;;;1.20;;
76727;SDS011;65652;53.132;18.026;2023-05-28T12:57:49;5.70;;;1.30;;
76727;SDS011;65652;53.132;18.026;2023-05-28T13:00:16;3.90;;;1.20;;
76727;SDS011;65652;53.132;18.026;2023-05-28T13:02:43;4.90;;;1.20;;
76727;SDS011;65652;53.132;18.026;2023-05-28T13:05:10;4.30;;;1.20;;
76727;SDS011;65652;53.132;18.026;2023-05-28T13:07:37;4.50;;;1.30;;
76727;SDS011;65652;53.132;18.026;2023-05-28T13:10:04;5.80;;;1.30;;
76727;SDS011;65652;53.132;18.026;2023-05-28T13:12:34;4.90;;;1.10;;
76727;SDS011;65652;53.132;18.026;2023-05-28T13:15:04;5.70;;;1.30;;
76727;SDS011;65652;53.132;18.026;2023-05-28T13:17:32;4.40;;;1.00;;
76727;SDS011;65652;53.132;18.026;2023-05-28T13:19:59;3.70;;;1.20;;
76727;SDS011;65652;53.132;18.026;2023-05-28T13:24:53;3.70;;;1.40;;
76727;SDS011;65652;53.132;18.026;2023-05-28T13:27:20;5.20;;;1.30;;
76727;SDS011;65652;53.132;18.026;2023-05-28T13:29:47;4.50;;;1.30;;
76727;SDS011;65652;53.132;18.026;2023-05-28T13:32:14;4.30;;;1.20;;
76727;SDS011;65652;53.132;18.026;2023-05-28T13:34:41;4.50;;;1.50;;
76727;SDS011;65652;53.132;18.026;2023-05-28T13:37:08;4.10;;;1.40;;
76727;SDS011;65652;53.132;18.026;2023-05-28T13:39:35;4.70;;;1.20;;
76727;SDS011;65652;53.132;18.026;2023-05-28T13:42:02;3.90;;;1.40;;
76727;SDS011;65652;53.132;18.026;2023-05-28T13:44:30;4.30;;;1.30;;
76727;SDS011;65652;53.132;18.026;2023-05-28T13:46:57;5.50;;;1.60;;
76727;SDS011;65652;53.132;18.026;2023-05-28T13:49:24;4.50;;;1.30;;
76727;SDS011;65652;53.132;18.026;2023-05-28T13:54:19;3.50;;;1.10;;
76727;SDS011;65652;53.132;18.026;2023-05-28T13:56:46;4.90;;;1.40;;
76727;SDS011;65652;53.132;18.026;2023-05-28T13:59:13;5.30;;;1.40;;
76727;SDS011;65652;53.132;18.026;2023-05-28T14:01:40;4.50;;;1.40;;
76727;SDS011;65652;53.132;18.026;2023-05-28T14:04:07;4.20;;;1.40;;
76727;SDS011;65652;53.132;18.026;2023-05-28T14:06:33;5.30;;;1.40;;
76727;SDS011;65652;53.132;18.026;2023-05-28T14:09:01;6.60;;;1.50;;
76727;SDS011;65652;53.132;18.026;2023-05-28T14:11:31;3.80;;;1.20;;
76727;SDS011;65652;53.132;18.026;2023-05-28T14:16:25;4.10;;;1.20;;
76727;SDS011;65652;53.132;18.026;2023-05-28T14:18:52;4.20;;;1.40;;
76727;SDS011;65652;53.132;18.026;2023-05-28T14:21:19;4.10;;;1.40;;
76727;SDS011;65652;53.132;18.026;2023-05-28T14:23:46;5.30;;;1.40;;
76727;SDS011;65652;53.132;18.026;2023-05-28T14:26:13;3.50;;;1.20;;
76727;SDS011;65652;53.132;18.026;2023-05-28T14:28:40;4.10;;;1.40;;
76727;SDS011;65652;53.132;18.026;2023-05-28T14:31:07;5.40;;;1.50;;
76727;SDS011;65652;53.132;18.026;2023-05-28T14:33:34;4.70;;;1.10;;
76727;SDS011;65652;53.132;18.026;2023-05-28T14:36:01;4.30;;;1.50;;
76727;SDS011;65652;53.132;18.026;2023-05-28T14:38:28;4.80;;;1.30;;
76727;SDS011;65652;53.132;18.026;2023-05-28T14:40:55;6.20;;;1.80;;
76727;SDS011;65652;53.132;18.026;2023-05-28T14:45:49;4.10;;;1.50;;
76727;SDS011;65652;53.132;18.026;2023-05-28T14:48:16;5.20;;;1.30;;
76727;SDS011;65652;53.132;18.026;2023-05-28T14:50:43;4.80;;;1.40;;
76727;SDS011;65652;53.132;18.026;2023-05-28T14:53:10;4.60;;;1.40;;
76727;SDS011;65652;53.132;18.026;2023-05-28T14:55:37;5.50;;;1.50;;
76727;SDS011;65652;53.132;18.026;2023-05-28T14:58:04;4.60;;;1.30;;
76727;SDS011;65652;53.132;18.026;2023-05-28T15:00:31;4.40;;;1.30;;
76727;SDS011;65652;53.132;18.026;2023-05-28T15:05:25;3.80;;;1.10;;
76727;SDS011;65652;53.132;18.026;2023-05-28T15:07:54;5.50;;;1.80;;
76727;SDS011;65652;53.132;18.026;2023-05-28T15:10:21;4.10;;;1.20;;
76727;SDS011;65652;53.132;18.026;2023-05-28T15:12:48;5.50;;;1.50;;
76727;SDS011;65652;53.132;18.026;2023-05-28T15:15:16;5.30;;;1.70;;
76727;SDS011;65652;53.132;18.026;2023-05-28T15:17:43;4.20;;;1.40;;
76727;SDS011;65652;53.132;18.026;2023-05-28T15:20:10;4.20;;;1.30;;
76727;SDS011;65652;53.132;18.026;2023-05-28T15:22:37;4.40;;;1.70;;